Time;durP1;ratioP1;P1;durP2;ratioP2;P2;SDS_P1;SDS_P2;PMS_P1;PMS_P2;Temp;Humidity;BMP_temperature;BMP_pressure;BME280_temperature;BME280_humidity;BME280_pressure;Samples;Min_cycle;Max_cycle;Signal;HPM_P1;HPM_P2
2021/12/23 00:00:11;;;;;;;5.21;3.47;;;;;;;-9.35;79.74;101516.77;441666;117;930696;-70
2021/12/23 00:01:15;;;;;;;4.39;3.59;;;;;;;-9.35;79.77;101508.84;442498;118;922546;-70
2021/12/23 00:02:19;;;;;;;4.23;3.79;;;;;;;-9.35;79.85;101509.71;442817;118;922655;-71
2021/12/23 00:03:22;;;;;;;4.77;3.21;;;;;;;-9.35;79.71;101514.13;431719;120;923053;-71
2021/12/23 00:04:26;;;;;;;4.34;3.45;;;;;;;-9.37;79.39;101506.27;433875;120;922780;-70
2021/12/23 00:05:30;;;;;;;3.50;2.84;;;;;;;-9.39;79.39;101515.19;442765;118;922861;-70
2021/12/23 00:06:33;;;;;;;3.41;2.80;;;;;;;-9.42;79.00;101507.38;443473;118;930619;-70
2021/12/23 00:07:37;;;;;;;2.40;2.20;;;;;;;-9.43;79.40;101510.98;442564;118;930697;-70
2021/12/23 00:08:40;;;;;;;2.43;2.10;;;;;;;-9.46;79.32;101513.73;442118;118;923019;-70
2021/12/23 00:10:55;;;;;;;3.49;2.81;;;;;;;-9.39;79.07;101505.49;491503;104;1194808;-70
2021/12/23 00:11:59;;;;;;;3.08;2.79;;;;;;;-9.54;78.60;101516.71;486307;107;923004;-70
2021/12/23 00:13:03;;;;;;;2.64;2.13;;;;;;;-9.56;78.10;101517.69;486692;107;930566;-70
2021/12/23 00:14:09;;;;;;;2.96;2.66;;;;;;;-9.59;78.81;101513.38;487821;106;922623;-69
2021/12/23 00:15:30;;;;;;;2.87;2.57;;;;;;;-9.61;79.02;101506.47;475135;109;930485;-70
2021/12/23 00:16:56;;;;;;;3.46;2.68;;;;;;;-9.62;78.91;101508.24;486926;107;922538;-71
2021/12/23 00:17:57;;;;;;;3.82;2.97;;;;;;;-9.62;78.42;101515.30;487208;106;923075;-71
2021/12/23 00:19:04;;;;;;;4.66;3.17;;;;;;;-9.62;78.81;101508.24;475327;109;922659;-71
2021/12/23 00:23:58;;;;;;;3.49;2.73;;;;;;;-9.64;79.50;101514.49;486515;106;922504;-70
2021/12/23 00:25:03;;;;;;;3.86;2.44;;;;;;;-9.60;79.45;101505.55;485460;107;922697;-70
2021/12/23 00:26:07;;;;;;;3.11;2.41;;;;;;;-9.57;79.62;101514.19;485255;106;922623;-70
2021/12/23 00:27:10;;;;;;;2.69;2.18;;;;;;;-9.54;79.75;101510.58;485599;107;922908;-70
2021/12/23 00:28:14;;;;;;;5.36;2.80;;;;;;;-9.52;79.74;101513.98;486267;107;922550;-71
2021/12/23 00:29:17;;;;;;;2.77;2.11;;;;;;;-9.52;79.73;101512.20;486098;107;930518;-71
2021/12/23 00:30:21;;;;;;;3.42;2.88;;;;;;;-9.51;79.01;101510.42;486043;107;930715;-70
2021/12/23 00:31:24;;;;;;;2.34;2.14;;;;;;;-9.54;79.00;101508.80;486154;106;922937;-71
2021/12/23 00:32:28;;;;;;;2.38;2.06;;;;;;;-9.56;79.21;101512.41;486522;106;930444;-71
2021/12/23 00:33:33;;;;;;;2.88;2.44;;;;;;;-9.58;79.23;101511.60;487881;107;923060;-70
2021/12/23 00:34:38;;;;;;;2.34;2.14;;;;;;;-9.60;79.26;101503.77;486810;107;930502;-70
2021/12/23 00:35:41;;;;;;;2.98;2.18;;;;;;;-9.61;79.18;101499.41;486381;106;922712;-70
2021/12/23 00:36:46;;;;;;;3.57;2.74;;;;;;;-9.62;79.21;101510.02;486493;106;922988;-70
2021/12/23 00:37:56;;;;;;;2.90;2.60;;;;;;;-9.62;79.31;101507.38;487412;107;930575;-71
2021/12/23 00:38:56;;;;;;;3.23;2.63;;;;;;;-9.62;79.43;101507.38;486067;107;923065;-70
2021/12/23 00:40:00;;;;;;;2.87;2.35;;;;;;;-9.62;79.46;101510.88;488119;106;923209;-70
2021/12/23 00:41:04;;;;;;;4.43;2.17;;;;;;;-9.61;78.92;101515.25;485322;107;922800;-70
2021/12/23 00:42:08;;;;;;;2.42;2.22;;;;;;;-9.62;78.99;101508.24;487474;107;922698;-70
2021/12/23 00:43:12;;;;;;;2.56;2.07;;;;;;;-9.64;78.92;101509.22;485869;107;922445;-70
2021/12/23 00:44:15;;;;;;;2.44;2.22;;;;;;;-9.65;79.00;101513.66;485102;107;922680;-70
2021/12/23 00:45:19;;;;;;;2.16;1.90;;;;;;;-9.66;79.11;101516.36;485425;106;922704;-70
2021/12/23 00:46:24;;;;;;;3.00;2.54;;;;;;;-9.67;79.29;101518.14;486900;107;922731;-70
2021/12/23 00:47:27;;;;;;;3.09;2.81;;;;;;;-9.65;79.30;101513.66;485505;107;922669;-70
2021/12/23 00:48:30;;;;;;;4.00;3.11;;;;;;;-9.64;79.43;101506.58;476678;109;922579;-70
2021/12/23 00:49:34;;;;;;;2.59;2.35;;;;;;;-9.60;79.47;101513.47;487457;106;922868;-70
2021/12/23 00:50:37;;;;;;;3.36;3.06;;;;;;;-9.58;79.51;101503.69;486198;107;923042;-71
2021/12/23 00:51:41;;;;;;;2.64;2.36;;;;;;;-9.56;79.56;101502.70;487035;107;922652;-70
2021/12/23 00:52:53;;;;;;;3.34;2.69;;;;;;;-9.53;79.45;101505.20;485854;107;930557;-70
2021/12/23 00:53:52;;;;;;;2.54;2.33;;;;;;;-9.52;79.38;101501.65;485276;106;922763;-71
2021/12/23 00:54:55;;;;;;;3.17;2.43;;;;;;;-9.52;79.20;101506.06;487160;107;923402;-70
2021/12/23 00:55:58;;;;;;;2.94;2.14;;;;;;;-9.51;79.38;101503.37;486508;107;922694;-70
2021/12/23 00:57:01;;;;;;;3.12;2.58;;;;;;;-9.52;79.40;101503.42;486924;106;930417;-72
2021/12/23 00:58:04;;;;;;;3.21;2.66;;;;;;;-9.53;79.41;101501.70;486924;106;922669;-70
2021/12/23 00:59:09;;;;;;;4.15;2.92;;;;;;;-9.52;79.38;101511.34;486284;106;922926;-70
2021/12/23 01:00:16;;;;;;;3.25;2.79;;;;;;;-9.52;79.30;101506.93;484510;107;930999;-71
2021/12/23 01:01:19;;;;;;;3.06;2.74;;;;;;;-9.53;79.20;101499.06;484814;107;922965;-70
2021/12/23 01:02:27;;;;;;;3.08;2.61;;;;;;;-9.52;79.30;101503.42;477171;109;922702;-69
2021/12/23 01:03:30;;;;;;;2.41;2.19;;;;;;;-9.53;79.35;101504.34;485773;106;922879;-71
2021/12/23 01:04:33;;;;;;;3.11;2.81;;;;;;;-9.54;79.45;101502.66;486536;107;922573;-70
2021/12/23 01:05:37;;;;;;;3.52;2.49;;;;;;;-9.54;79.42;101502.66;486123;106;922726;-70
2021/12/23 01:06:41;;;;;;;3.09;2.56;;;;;;;-9.55;79.31;101503.57;485918;106;922638;-69
2021/12/23 01:07:44;;;;;;;3.31;2.08;;;;;;;-9.56;79.04;101504.48;486867;106;922535;-69
2021/12/23 01:08:47;;;;;;;3.04;2.52;;;;;;;-9.57;79.39;101500.98;487707;106;922579;-70
2021/12/23 01:09:51;;;;;;;2.42;1.98;;;;;;;-9.58;79.45;101501.05;476349;109;922867;-69
2021/12/23 01:10:57;;;;;;;2.54;2.05;;;;;;;-9.57;79.55;101500.12;487471;106;923347;-70
2021/12/23 01:12:00;;;;;;;2.55;1.94;;;;;;;-9.57;79.52;101502.77;475945;109;930551;-72
2021/12/23 01:13:05;;;;;;;2.45;2.09;;;;;;;-9.56;79.57;101500.07;486827;107;922887;-69
2021/12/23 01:16:48;;;;;;;2.73;2.52;;;;;;;-9.51;79.60;101503.37;487163;106;922554;-70
2021/12/23 01:17:54;;;;;;;2.74;2.44;;;;;;;-9.48;79.54;101505.04;485012;107;922971;-70
2021/12/23 01:18:53;;;;;;;2.41;2.08;;;;;;;-9.47;79.63;101496.17;486909;107;923007;-70
2021/12/23 01:19:54;;;;;;;2.77;2.09;;;;;;;-9.46;79.68;101498.75;475312;109;922861;-70
2021/12/23 01:21:16;;;;;;;2.13;1.81;;;;;;;-9.44;79.58;101512.75;485843;106;922859;-70
2021/12/23 01:22:10;;;;;;;2.88;2.19;;;;;;;-9.45;79.57;101515.45;485327;107;922613;-69
2021/12/23 01:23:13;;;;;;;2.87;2.07;;;;;;;-9.42;79.68;101512.66;485587;107;923189;-70
2021/12/23 01:24:17;;;;;;;2.39;2.19;;;;;;;-9.42;79.69;101512.66;485732;107;922640;-70
2021/12/23 01:25:21;;;;;;;2.46;2.14;;;;;;;-9.41;79.68;101514.39;485748;107;926526;-71
2021/12/23 01:26:25;;;;;;;2.45;2.12;;;;;;;-9.39;79.77;101508.13;485923;107;930360;-70
2021/12/23 01:27:28;;;;;;;2.41;2.09;;;;;;;-9.38;79.81;101511.63;486934;107;922294;-70
2021/12/23 01:28:31;;;;;;;2.91;2.27;;;;;;;-9.38;79.80;101516.91;487429;106;922674;-70
2021/12/23 01:29:35;;;;;;;2.60;2.39;;;;;;;-9.37;79.63;101514.19;486679;106;922665;-71
2021/12/23 01:30:39;;;;;;;2.59;2.18;;;;;;;-9.37;79.76;101513.36;486722;107;922647;-71
2021/12/23 01:31:43;;;;;;;2.08;1.88;;;;;;;-9.36;79.54;101512.41;486332;107;922549;-70
2021/12/23 01:32:49;;;;;;;2.48;2.19;;;;;;;-9.35;79.67;101516.77;485942;107;922636;-70
2021/12/23 01:33:52;;;;;;;2.54;2.09;;;;;;;-9.36;79.27;101515.05;485902;106;922856;-71
2021/12/23 01:34:56;;;;;;;4.08;2.32;;;;;;;-9.37;79.45;101521.28;485037;107;922800;-70
2021/12/23 01:35:59;;;;;;;2.47;2.12;;;;;;;-9.40;79.10;101516.11;486711;107;923014;-70
2021/12/23 01:37:04;;;;;;;2.41;2.21;;;;;;;-9.41;79.44;101514.39;487113;106;922682;-70
2021/12/23 01:38:08;;;;;;;3.13;2.24;;;;;;;-9.41;79.58;101512.61;487362;106;923027;-71
2021/12/23 01:39:13;;;;;;;3.52;2.30;;;;;;;-9.42;79.57;101518.80;487975;106;923012;-71
2021/12/23 01:40:19;;;;;;;3.17;2.82;;;;;;;-9.42;79.52;101520.59;485660;107;922796;-71
2021/12/23 01:41:24;;;;;;;5.04;3.83;;;;;;;-9.43;79.60;101522.40;484522;107;923046;-70
2021/12/23 01:42:28;;;;;;;5.78;5.12;;;;;;;-9.42;79.67;101523.22;486093;106;923227;-70
2021/12/23 01:43:31;;;;;;;7.09;5.50;;;;;;;-9.42;79.72;101526.73;487326;107;922471;-70
2021/12/23 01:44:35;;;;;;;4.67;3.72;;;;;;;-9.40;79.79;101526.67;485743;107;922814;-70
2021/12/23 01:45:44;;;;;;;3.44;3.08;;;;;;;-9.37;79.87;101523.92;484209;107;930397;-70
2021/12/23 01:46:48;;;;;;;3.67;2.97;;;;;;;-9.34;79.79;101521.99;484869;106;923198;-71
2021/12/23 01:47:52;;;;;;;3.21;2.84;;;;;;;-9.31;79.89;101520.98;487023;107;922973;-70
2021/12/23 01:48:56;;;;;;;3.53;2.06;;;;;;;-9.29;79.93;101520.02;486324;107;930498;-70
2021/12/23 01:49:59;;;;;;;2.89;2.57;;;;;;;-9.26;79.82;101526.92;485968;107;922629;-70
2021/12/23 01:51:03;;;;;;;1.92;1.76;;;;;;;-9.26;79.82;101519.00;486225;107;922867;-70
2021/12/23 01:52:06;;;;;;;3.15;2.36;;;;;;;-9.22;79.89;101522.39;485822;106;922860;-70
2021/12/23 01:53:10;;;;;;;3.62;2.38;;;;;;;-9.21;79.94;101519.69;485643;107;930402;-70
2021/12/23 01:54:14;;;;;;;2.40;2.09;;;;;;;-9.19;79.93;101522.24;486637;107;922565;-71
2021/12/23 01:55:17;;;;;;;2.69;2.03;;;;;;;-9.15;79.76;101518.56;476206;109;922665;-71
2021/12/23 01:56:25;;;;;;;2.23;1.89;;;;;;;-9.15;79.77;101524.68;487311;106;922524;-71
2021/12/23 01:57:31;;;;;;;2.51;2.07;;;;;;;-9.16;79.40;101509.78;476669;109;922628;-70
2021/12/23 01:58:41;;;;;;;3.08;2.41;;;;;;;-9.17;79.35;101509.84;485738;107;923315;-70
2021/12/23 01:59:44;;;;;;;3.49;2.16;;;;;;;-9.20;79.49;101517.87;486265;107;922475;-71
2021/12/23 02:00:50;;;;;;;2.71;2.46;;;;;;;-9.22;79.50;101519.75;477662;109;922801;-69
2021/12/23 02:01:53;;;;;;;2.72;2.08;;;;;;;-9.24;79.58;101525.09;478774;107;923038;-69
2021/12/23 02:02:58;;;;;;;2.62;2.06;;;;;;;-9.24;79.68;101521.59;485969;107;922959;-72
2021/12/23 02:04:02;;;;;;;1.87;1.77;;;;;;;-9.25;79.62;101517.22;485549;106;923136;-69
2021/12/23 02:05:06;;;;;;;2.17;1.81;;;;;;;-9.25;79.66;101519.86;484427;107;922706;-68
2021/12/23 02:06:10;;;;;;;2.70;2.42;;;;;;;-9.26;79.66;101519.00;486621;107;930494;-69
2021/12/23 02:07:13;;;;;;;2.44;2.08;;;;;;;-9.26;79.69;101513.72;485508;107;922942;-70
2021/12/23 02:08:17;;;;;;;2.63;2.24;;;;;;;-9.26;79.64;101513.72;484767;106;930399;-69
2021/12/23 02:09:20;;;;;;;2.11;1.91;;;;;;;-9.25;79.69;101511.94;485639;106;922702;-70
2021/12/23 02:10:24;;;;;;;3.03;1.84;;;;;;;-9.24;79.68;101514.52;485161;107;923231;-69
2021/12/23 02:11:27;;;;;;;2.62;1.82;;;;;;;-9.23;79.78;101516.25;481053;107;923071;-70
2021/12/23 02:12:31;;;;;;;2.04;1.81;;;;;;;-9.21;79.76;101517.05;477089;109;922520;-69
2021/12/23 02:13:34;;;;;;;2.90;1.87;;;;;;;-9.21;79.78;101506.48;477647;109;930582;-71
2021/12/23 02:14:39;;;;;;;2.30;1.95;;;;;;;-9.19;79.63;101520.46;476737;109;923289;-69
2021/12/23 02:15:42;;;;;;;2.88;2.14;;;;;;;-9.20;79.17;101508.17;476350;109;930436;-70
2021/12/23 02:16:45;;;;;;;2.21;1.99;;;;;;;-9.21;79.58;101506.48;477643;108;923085;-70
2021/12/23 02:17:50;;;;;;;2.07;1.91;;;;;;;-9.19;79.73;101511.67;477909;109;930497;-69
2021/12/23 02:18:53;;;;;;;1.90;1.80;;;;;;;-9.17;79.81;101509.84;478198;109;930549;-68
2021/12/23 02:19:56;;;;;;;2.62;2.39;;;;;;;-9.18;79.77;101510.76;477936;109;922580;-69
2021/12/23 02:21:00;;;;;;;2.90;1.99;;;;;;;-9.17;79.76;101512.48;478405;109;925315;-69
2021/12/23 02:22:04;;;;;;;2.86;2.08;;;;;;;-9.18;79.79;101511.63;477994;109;930475;-70
2021/12/23 02:23:09;;;;;;;4.26;2.63;;;;;;;-9.16;79.90;101509.78;477760;108;922423;-69
2021/12/23 02:24:14;;;;;;;2.91;2.13;;;;;;;-9.12;79.98;101519.28;477391;109;922683;-69
2021/12/23 02:25:17;;;;;;;3.46;2.34;;;;;;;-9.09;80.01;101515.63;477379;109;922589;-70
2021/12/23 02:26:21;;;;;;;2.52;2.19;;;;;;;-9.06;80.00;101515.52;477307;108;923540;-69
2021/12/23 02:27:24;;;;;;;2.66;1.82;;;;;;;-9.04;79.80;101508.39;477671;109;922655;-69
2021/12/23 02:28:28;;;;;;;2.83;2.07;;;;;;;-9.03;79.66;101513.58;477715;108;923106;-69
2021/12/23 02:29:31;;;;;;;2.81;2.30;;;;;;;-9.03;79.76;101508.30;477678;109;922883;-69
2021/12/23 02:30:37;;;;;;;2.64;2.31;;;;;;;-9.01;79.86;101511.74;476578;108;923048;-69
2021/12/23 02:31:40;;;;;;;2.50;2.14;;;;;;;-9.01;79.81;101511.74;467519;111;930423;-69
2021/12/23 02:32:45;;;;;;;1.91;1.77;;;;;;;-9.01;79.65;101511.74;459939;113;922550;-70
2021/12/23 02:33:49;;;;;;;2.44;1.96;;;;;;;-9.01;79.71;101513.52;465065;113;923268;-69
2021/12/23 02:34:52;;;;;;;2.30;2.05;;;;;;;-9.03;79.78;101510.94;465841;111;922910;-69
2021/12/23 02:35:57;;;;;;;2.64;2.22;;;;;;;-9.02;79.84;101510.02;467109;111;922732;-70
2021/12/23 02:37:01;;;;;;;3.19;2.89;;;;;;;-9.01;79.88;101516.16;462085;113;922730;-68
2021/12/23 02:38:05;;;;;;;2.77;2.47;;;;;;;-9.00;79.93;101516.11;466667;111;922651;-69
2021/12/23 02:39:08;;;;;;;2.88;2.16;;;;;;;-8.98;79.98;101514.23;458658;113;930255;-70
2021/12/23 02:40:28;;;;;;;3.20;2.67;;;;;;;-8.97;79.97;101521.23;459319;113;922857;-68
2021/12/23 02:41:31;;;;;;;2.44;2.24;;;;;;;-8.96;80.00;101515.03;461438;113;922726;-70
2021/12/23 02:42:35;;;;;;;2.66;2.18;;;;;;;-8.95;79.90;101516.76;467802;111;922495;-68
2021/12/23 02:43:38;;;;;;;2.19;2.00;;;;;;;-8.96;79.95;101517.67;468297;111;922605;-70
2021/12/23 02:44:41;;;;;;;3.17;2.02;;;;;;;-8.94;80.02;101514.98;468219;111;930480;-70
2021/12/23 02:45:48;;;;;;;3.33;2.13;;;;;;;-8.93;80.07;101521.98;467452;111;930402;-69
2021/12/23 02:46:51;;;;;;;3.52;2.52;;;;;;;-8.93;80.07;101517.52;461890;113;922551;-69
2021/12/23 02:47:54;;;;;;;3.04;2.17;;;;;;;-8.93;79.98;101511.41;461320;113;923483;-71
2021/12/23 02:48:58;;;;;;;3.64;2.74;;;;;;;-8.91;80.04;101514.82;459974;113;930557;-69
2021/12/23 02:50:01;;;;;;;3.66;2.54;;;;;;;-8.90;79.79;101516.55;467008;111;922503;-69
2021/12/23 02:51:08;;;;;;;3.58;2.67;;;;;;;-8.90;79.64;101513.91;459678;113;922834;-70
2021/12/23 02:52:11;;;;;;;3.02;2.49;;;;;;;-8.92;79.69;101516.61;459937;113;922587;-69
2021/12/23 02:53:15;;;;;;;2.93;2.31;;;;;;;-8.95;79.75;101519.40;459603;113;922714;-71
2021/12/23 02:54:18;;;;;;;4.98;3.86;;;;;;;-8.95;79.90;101514.11;459902;113;923003;-69
2021/12/23 02:55:22;;;;;;;7.04;6.30;;;;;;;-8.95;79.90;101516.76;460886;113;923169;-69
2021/12/23 02:56:25;;;;;;;10.18;7.74;;;;;;;-8.95;79.93;101507.97;460764;113;922547;-71
2021/12/23 02:57:31;;;;;;;9.63;8.66;;;;;;;-8.94;79.97;101514.98;459646;112;928199;-70
2021/12/23 02:58:34;;;;;;;6.76;6.15;;;;;;;-8.93;79.82;101514.88;468580;111;922556;-68
2021/12/23 02:59:38;;;;;;;8.50;7.68;;;;;;;-8.92;79.83;101513.10;465536;112;922626;-69
2021/12/23 03:00:43;;;;;;;8.67;7.84;;;;;;;-8.92;79.87;101515.74;467163;111;922730;-69
2021/12/23 03:01:47;;;;;;;8.53;7.79;;;;;;;-8.94;79.83;101510.55;459823;113;923209;-70
2021/12/23 03:02:51;;;;;;;7.80;7.08;;;;;;;-8.94;79.91;101518.48;459633;113;922716;-69
2021/12/23 03:03:55;;;;;;;5.40;4.90;;;;;;;-8.94;79.93;101507.91;459789;113;922653;-69
2021/12/23 03:04:58;;;;;;;4.11;3.72;;;;;;;-8.93;79.96;101506.95;459935;113;923378;-70
2021/12/23 03:06:03;;;;;;;3.30;2.99;;;;;;;-8.92;80.00;101515.74;458731;113;922850;-71
2021/12/23 03:07:06;;;;;;;3.51;3.19;;;;;;;-8.89;80.04;101519.13;464099;111;922680;-69
2021/12/23 03:08:09;;;;;;;3.47;3.00;;;;;;;-8.88;79.94;101518.20;459504;113;930769;-69
2021/12/23 03:09:13;;;;;;;3.43;2.61;;;;;;;-8.87;79.97;101514.61;462714;113;931089;-69
2021/12/23 03:10:16;;;;;;;2.62;2.29;;;;;;;-8.85;80.04;101517.19;458381;113;922687;-69
2021/12/23 03:11:22;;;;;;;3.47;2.71;;;;;;;-8.82;80.05;101513.57;465647;110;923139;-69
2021/12/23 03:12:26;;;;;;;3.68;2.83;;;;;;;-8.80;80.09;101519.62;472188;110;922688;-70
2021/12/23 03:13:29;;;;;;;4.01;2.82;;;;;;;-8.80;80.03;101516.98;470336;110;922790;-70
2021/12/23 03:14:33;;;;;;;3.57;2.82;;;;;;;-8.80;80.03;101522.27;470376;110;923385;-69
2021/12/23 03:15:36;;;;;;;3.47;2.99;;;;;;;-8.79;80.02;101518.70;470437;110;922444;-69
2021/12/23 03:16:40;;;;;;;5.39;4.37;;;;;;;-8.79;80.00;101523.98;471136;110;922735;-72
2021/12/23 03:17:43;;;;;;;3.97;3.29;;;;;;;-8.80;79.97;101523.12;470891;110;930618;-69
2021/12/23 03:18:46;;;;;;;3.60;2.66;;;;;;;-8.81;80.02;101521.41;472062;110;922595;-69
2021/12/23 03:19:50;;;;;;;3.69;3.27;;;;;;;-8.80;80.00;101522.27;472023;110;930600;-70
2021/12/23 03:20:54;;;;;;;3.10;2.72;;;;;;;-8.81;79.98;101521.41;471240;110;930689;-69
2021/12/23 03:21:57;;;;;;;3.44;3.14;;;;;;;-8.82;79.98;101525.00;471669;110;922572;-70
2021/12/23 03:23:00;;;;;;;3.19;2.86;;;;;;;-8.81;79.98;101531.12;471410;112;922724;-70
2021/12/23 03:24:04;;;;;;;3.31;2.87;;;;;;;-8.82;79.93;101524.14;471362;110;930693;-70
2021/12/23 03:25:08;;;;;;;3.33;2.41;;;;;;;-8.82;80.00;101526.78;472457;110;930609;-70
2021/12/23 03:26:12;;;;;;;4.17;3.23;;;;;;;-8.82;80.01;101532.93;472249;110;922561;-69
2021/12/23 03:27:15;;;;;;;3.46;3.12;;;;;;;-8.78;80.07;101531.00;471862;110;922615;-69
2021/12/23 03:28:19;;;;;;;3.74;3.09;;;;;;;-8.76;80.13;101529.13;472532;110;923236;-68
2021/12/23 03:29:22;;;;;;;3.35;2.95;;;;;;;-8.73;80.14;101534.28;469647;110;931299;-68
2021/12/23 03:30:26;;;;;;;3.26;2.52;;;;;;;-8.69;80.16;101538.50;469454;110;922936;-70
2021/12/23 03:31:30;;;;;;;2.75;2.51;;;;;;;-8.66;80.14;101536.59;472484;110;923211;-70
2021/12/23 03:32:33;;;;;;;3.31;2.90;;;;;;;-8.64;80.21;101533.86;472562;110;922944;-72
2021/12/23 03:33:37;;;;;;;3.21;2.89;;;;;;;-8.60;80.17;101533.64;473196;110;922674;-69
2021/12/23 03:34:40;;;;;;;2.87;2.62;;;;;;;-8.59;80.15;101535.37;472432;110;922508;-69
2021/12/23 03:35:44;;;;;;;3.51;2.81;;;;;;;-8.54;80.10;101541.30;472963;110;930505;-69
2021/12/23 03:36:47;;;;;;;3.44;2.92;;;;;;;-8.54;80.10;101541.30;471991;110;922805;-69
2021/12/23 03:37:51;;;;;;;3.76;2.77;;;;;;;-8.51;80.18;101533.25;471729;110;922525;-69
2021/12/23 03:38:54;;;;;;;3.05;2.71;;;;;;;-8.49;80.17;101533.19;471011;110;923033;-70
2021/12/23 03:39:57;;;;;;;3.27;2.81;;;;;;;-8.49;80.08;101531.37;470816;110;923048;-70
2021/12/23 03:41:01;;;;;;;3.14;2.83;;;;;;;-8.47;80.08;101531.31;465030;112;930722;-70
2021/12/23 03:42:05;;;;;;;3.47;3.17;;;;;;;-8.45;80.09;101527.68;468011;108;922843;-69
2021/12/23 03:43:11;;;;;;;3.50;3.04;;;;;;;-8.45;80.04;101529.46;477038;108;930523;-70
2021/12/23 03:44:14;;;;;;;2.81;2.52;;;;;;;-8.47;80.00;101531.31;476846;108;922553;-69
2021/12/23 03:45:18;;;;;;;4.31;2.92;;;;;;;-8.47;79.95;101536.59;476299;108;923039;-69
2021/12/23 03:46:23;;;;;;;3.18;2.82;;;;;;;-8.49;79.93;101534.02;476731;108;922689;-70
2021/12/23 03:47:27;;;;;;;3.36;3.06;;;;;;;-8.49;79.97;101538.47;477438;108;922784;-70
2021/12/23 03:48:30;;;;;;;3.58;3.25;;;;;;;-8.50;79.98;101534.97;476825;108;923125;-71
2021/12/23 03:49:34;;;;;;;4.33;3.76;;;;;;;-8.48;79.99;101540.16;477056;108;931165;-69
2021/12/23 03:50:37;;;;;;;4.88;4.24;;;;;;;-8.47;80.07;101536.59;467621;111;931264;-70
2021/12/23 03:51:40;;;;;;;4.82;4.32;;;;;;;-8.46;80.14;101536.53;468324;111;922890;-70
2021/12/23 03:52:45;;;;;;;5.64;5.03;;;;;;;-8.43;80.12;101530.23;472520;109;930532;-69
2021/12/23 03:53:48;;;;;;;7.59;6.86;;;;;;;-8.42;80.11;101531.95;472836;111;922759;-70
2021/12/23 03:54:51;;;;;;;4.22;3.84;;;;;;;-8.42;80.04;101534.59;472491;109;922527;-69
2021/12/23 03:55:55;;;;;;;3.56;3.22;;;;;;;-8.43;79.77;101532.88;472759;109;930464;-70
2021/12/23 03:56:58;;;;;;;4.41;3.65;;;;;;;-8.46;79.64;101533.03;472879;109;922693;-69
2021/12/23 03:58:02;;;;;;;3.50;3.20;;;;;;;-8.49;79.52;101538.47;472104;111;930638;-70
2021/12/23 03:59:05;;;;;;;3.37;3.04;;;;;;;-8.53;79.60;101534.23;470840;110;930649;-69
2021/12/23 04:00:12;;;;;;;3.76;3.46;;;;;;;-8.56;79.73;101531.73;472251;109;930737;-68
2021/12/23 04:01:16;;;;;;;4.19;3.81;;;;;;;-8.57;79.80;101528.23;472028;109;923263;-68
2021/12/23 04:02:19;;;;;;;4.33;3.94;;;;;;;-8.59;79.89;101532.72;471700;111;922653;-69
2021/12/23 04:03:23;;;;;;;3.77;3.45;;;;;;;-8.58;79.95;101534.44;471559;109;922451;-69
2021/12/23 04:04:26;;;;;;;3.96;3.55;;;;;;;-8.56;80.09;101534.38;472569;109;922994;-70
2021/12/23 04:05:29;;;;;;;2.89;2.64;;;;;;;-8.54;80.13;101537.80;473566;109;923384;-71
2021/12/23 04:06:32;;;;;;;3.47;3.17;;;;;;;-8.54;80.09;101536.02;472222;110;922663;-69
2021/12/23 04:07:38;;;;;;;3.52;3.22;;;;;;;-8.52;80.06;101538.59;472899;111;922659;-70
2021/12/23 04:08:41;;;;;;;3.16;2.76;;;;;;;-8.51;80.13;101540.31;472930;109;922354;-69
2021/12/23 04:09:45;;;;;;;2.46;2.23;;;;;;;-8.51;79.98;101540.31;472517;110;922898;-70
2021/12/23 04:10:48;;;;;;;2.76;2.49;;;;;;;-8.53;80.03;101543.02;472581;109;923238;-70
2021/12/23 04:11:51;;;;;;;3.00;2.56;;;;;;;-8.53;80.03;101542.16;472425;109;930374;-69
2021/12/23 04:12:55;;;;;;;2.45;2.21;;;;;;;-8.54;80.03;101546.59;467933;110;922821;-70
2021/12/23 04:13:58;;;;;;;3.55;3.04;;;;;;;-8.54;80.08;101543.08;467741;112;923787;-70
2021/12/23 04:15:03;;;;;;;2.72;2.41;;;;;;;-8.55;79.90;101544.04;467411;111;922691;-69
2021/12/23 04:16:07;;;;;;;3.78;2.33;;;;;;;-8.55;79.91;101546.68;464663;112;930403;-69
2021/12/23 04:17:10;;;;;;;2.56;2.28;;;;;;;-8.57;79.74;101545.87;473278;109;922471;-69
2021/12/23 04:18:13;;;;;;;2.14;1.93;;;;;;;-8.59;79.73;101545.08;465952;111;930373;-71
2021/12/23 04:19:17;;;;;;;2.46;2.22;;;;;;;-8.60;79.88;101552.15;470955;111;930425;-70
2021/12/23 04:20:23;;;;;;;3.02;2.19;;;;;;;-8.61;79.57;101552.24;473082;110;923115;-70
2021/12/23 04:21:26;;;;;;;1.88;1.64;;;;;;;-8.64;79.42;101547.08;465051;111;922974;-70
2021/12/23 04:22:30;;;;;;;2.60;2.40;;;;;;;-8.66;79.63;101551.59;462438;112;923413;-68
2021/12/23 04:23:33;;;;;;;2.31;2.11;;;;;;;-8.67;79.54;101557.80;471755;109;922574;-69
2021/12/23 04:24:37;;;;;;;2.99;2.72;;;;;;;-8.68;79.68;101556.08;472849;109;922593;-70
2021/12/23 04:25:41;;;;;;;3.62;3.04;;;;;;;-8.69;79.89;101555.22;467242;110;923066;-69
2021/12/23 04:26:44;;;;;;;3.02;2.11;;;;;;;-8.70;79.98;101550.86;467074;110;930758;-71
2021/12/23 04:27:49;;;;;;;2.64;2.27;;;;;;;-8.69;79.97;101554.36;463506;112;930405;-68
2021/12/23 04:28:53;;;;;;;3.27;2.43;;;;;;;-8.70;80.06;101544.70;473339;110;922891;-69
2021/12/23 04:29:56;;;;;;;2.59;2.07;;;;;;;-8.68;80.11;101556.08;472676;109;922570;-70
2021/12/23 04:30:59;;;;;;;2.77;2.43;;;;;;;-8.68;80.11;101548.15;473941;109;922617;-69
2021/12/23 04:32:03;;;;;;;2.33;2.12;;;;;;;-8.68;80.03;101549.02;465066;112;922757;-70
2021/12/23 04:33:06;;;;;;;2.69;2.40;;;;;;;-8.68;80.11;101550.80;468114;111;922611;-69
2021/12/23 04:34:10;;;;;;;3.80;3.14;;;;;;;-8.68;79.95;101548.15;473137;110;922587;-70
2021/12/23 04:35:14;;;;;;;3.36;2.99;;;;;;;-8.68;79.90;101551.66;465057;111;930667;-69
2021/12/23 04:36:19;;;;;;;2.71;2.34;;;;;;;-8.69;79.97;101549.08;464916;112;931028;-69
2021/12/23 04:37:22;;;;;;;2.58;2.32;;;;;;;-8.69;80.11;101552.58;473191;109;923485;-70
2021/12/23 04:38:25;;;;;;;2.34;2.13;;;;;;;-8.69;80.13;101543.78;473765;110;922676;-69
2021/12/23 04:39:29;;;;;;;3.09;2.48;;;;;;;-8.69;80.17;101547.30;474049;110;922542;-69
2021/12/23 04:40:38;;;;;;;3.29;2.82;;;;;;;-8.68;80.15;101549.02;467674;111;930503;-69
2021/12/23 04:41:39;;;;;;;2.66;2.46;;;;;;;-8.68;80.03;101549.02;472966;110;922718;-68
2021/12/23 04:42:43;;;;;;;3.71;2.88;;;;;;;-8.68;80.08;101543.73;463293;112;922718;-68
2021/12/23 04:43:46;;;;;;;3.07;2.41;;;;;;;-8.67;80.17;101552.52;474441;110;930552;-70
2021/12/23 04:44:50;;;;;;;2.67;2.42;;;;;;;-8.67;80.06;101547.23;464234;113;922784;-69
2021/12/23 04:45:53;;;;;;;2.61;2.27;;;;;;;-8.67;79.72;101550.73;463874;111;922586;-70
2021/12/23 04:46:56;;;;;;;3.58;2.27;;;;;;;-8.67;80.02;101544.59;474822;109;925130;-70
2021/12/23 04:48:00;;;;;;;3.19;2.77;;;;;;;-8.69;79.97;101549.08;473708;110;930677;-69
2021/12/23 04:49:03;;;;;;;3.13;2.74;;;;;;;-8.70;79.92;101550.86;466349;111;923146;-71
2021/12/23 04:50:11;;;;;;;4.22;3.01;;;;;;;-8.70;79.94;101549.99;468462;111;930663;-70
2021/12/23 04:51:15;;;;;;;3.49;3.12;;;;;;;-8.69;80.06;101551.72;465210;111;922645;-70
2021/12/23 04:52:19;;;;;;;3.68;2.98;;;;;;;-8.71;79.79;101549.13;472918;109;922580;-69
2021/12/23 04:53:22;;;;;;;2.39;2.17;;;;;;;-8.72;79.67;101541.30;464863;111;930705;-69
2021/12/23 04:54:26;;;;;;;3.20;2.36;;;;;;;-8.74;79.51;101548.42;464842;112;922929;-70
2021/12/23 04:55:30;;;;;;;2.33;2.08;;;;;;;-8.78;79.21;101555.64;469627;110;930175;-68
2021/12/23 04:56:34;;;;;;;3.19;2.76;;;;;;;-8.83;79.50;101548.84;467181;111;930296;-70
2021/12/23 04:57:37;;;;;;;4.21;3.80;;;;;;;-8.88;79.68;101544.63;464746;111;923402;-69
2021/12/23 04:58:42;;;;;;;3.67;3.02;;;;;;;-8.89;79.76;101550.84;472460;109;923020;-69
2021/12/23 04:59:45;;;;;;;5.74;3.97;;;;;;;-8.89;79.83;101553.48;471895;110;930544;-70
2021/12/23 05:00:51;;;;;;;3.62;3.13;;;;;;;-8.89;79.88;101556.13;464513;111;922619;-67
2021/12/23 05:01:54;;;;;;;3.61;3.25;;;;;;;-8.90;79.88;101549.11;466298;111;923186;-69